createdAt,value
2022-08-05T00:01:19.971Z,95335.88
2022-08-05T00:03:58.323Z,95330.03
2022-08-05T00:06:38.324Z,95329.38
2022-08-05T00:09:13.161Z,95335.34
2022-08-05T00:12:02.323Z,95335.34
2022-08-05T00:14:42.328Z,95331.97
2022-08-05T00:17:36.315Z,95329.56
2022-08-05T00:20:29.049Z,95328.00
2022-08-05T00:23:12.872Z,95325.50
2022-08-05T00:26:01.421Z,95329.91
2022-08-05T00:28:35.448Z,95328.16
2022-08-05T00:31:53.255Z,95332.47
2022-08-05T00:34:53.307Z,95324.84
2022-08-05T00:37:53.133Z,95322.47
2022-08-05T00:40:40.367Z,95325.19
2022-08-05T00:43:27.508Z,95321.94
2022-08-05T00:46:42.456Z,95320.19
2022-08-05T00:49:19.381Z,95315.84
2022-08-05T00:52:06.389Z,95321.00
2022-08-05T00:54:46.392Z,95315.97
2022-08-05T00:57:55.435Z,95319.53
2022-08-05T01:00:33.392Z,95310.19
2022-08-05T01:03:30.952Z,95311.16
2022-08-05T01:06:20.390Z,95314.63
2022-08-05T01:09:06.287Z,95310.41
2022-08-05T01:12:09.124Z,95313.03
2022-08-05T01:14:56.903Z,95307.03
2022-08-05T01:17:53.796Z,95307.88
2022-08-05T01:20:46.483Z,95297.56
2022-08-05T01:24:02.398Z,95296.66
2022-08-05T01:27:24.325Z,95305.31
2022-08-05T01:30:20.391Z,95301.09
2022-08-05T01:33:25.157Z,95302.97
2022-08-05T01:36:02.487Z,95299.63
2022-08-05T01:38:50.905Z,95291.13
2022-08-05T01:41:27.453Z,95296.34
2022-08-05T01:44:15.428Z,95301.66
2022-08-05T01:46:50.479Z,95295.72
2022-08-05T01:50:00.446Z,95294.84
2022-08-05T01:52:36.490Z,95298.28
2022-08-05T01:55:27.363Z,95300.06
2022-08-05T01:58:14.960Z,95297.59
2022-08-05T02:01:05.367Z,95295.16
2022-08-05T02:03:44.483Z,95285.72
2022-08-05T02:06:37.720Z,95284.09
2022-08-05T02:09:20.453Z,95281.66
2022-08-05T02:12:14.391Z,95286.13
2022-08-05T02:15:23.381Z,95277.63
2022-08-05T02:18:32.446Z,95279.41
2022-08-05T02:21:31.375Z,95285.50
2022-08-05T02:24:23.548Z,95276.91
2022-08-05T02:27:13.377Z,95275.16
2022-08-05T02:30:00.060Z,95274.25
2022-08-05T02:32:48.395Z,95271.78
2022-08-05T02:35:28.216Z,95270.16
2022-08-05T02:38:35.152Z,95268.50
2022-08-05T02:41:36.423Z,95262.56
2022-08-05T02:44:40.392Z,95269.50
2022-08-05T02:47:17.500Z,95270.56
2022-08-05T02:50:05.433Z,95266.34
2022-08-05T02:52:41.632Z,95258.69
2022-08-05T02:55:53.716Z,95254.44
2022-08-05T02:58:30.566Z,95251.06
2022-08-05T03:01:30.422Z,95256.25
2022-08-05T03:04:23.082Z,95252.03
2022-08-05T03:06:59.408Z,95252.13
2022-08-05T03:09:51.714Z,95253.91
2022-08-05T03:12:42.501Z,95253.06
2022-08-05T03:15:29.424Z,95247.94
2022-08-05T03:18:02.488Z,95247.16
2022-08-05T03:20:50.427Z,95250.56
2022-08-05T03:23:24.041Z,95244.56
2022-08-05T03:26:31.390Z,95247.13
2022-08-05T03:29:12.322Z,95253.00
2022-08-05T03:32:04.417Z,95252.16
2022-08-05T03:34:42.498Z,95257.28
2022-08-05T03:37:46.657Z,95247.72
2022-08-05T03:40:33.463Z,95249.44
2022-08-05T03:44:08.816Z,95256.25
2022-08-05T03:46:23.425Z,95253.69
2022-08-05T03:49:02.512Z,95251.16
2022-08-05T03:52:38.454Z,95251.16
2022-08-05T03:55:34.462Z,95252.97
2022-08-05T03:58:02.436Z,95259.06
2022-08-05T04:00:42.511Z,95252.28
2022-08-05T04:03:29.458Z,95244.59
2022-08-05T04:06:10.530Z,95253.22
2022-08-05T04:08:51.447Z,95255.81
2022-08-05T04:11:50.801Z,95249.91
2022-08-05T04:14:29.962Z,95250.03
2022-08-05T04:17:18.445Z,95256.91
2022-08-05T04:19:54.525Z,95246.59
2022-08-05T04:22:45.446Z,95247.41
2022-08-05T04:25:18.504Z,95249.16
2022-08-05T04:28:13.000Z,95249.13
2022-08-05T04:30:46.511Z,95242.16
2022-08-05T04:34:17.376Z,95248.09
2022-08-05T04:36:46.444Z,95243.75
2022-08-05T04:39:35.749Z,95249.66
2022-08-05T04:42:16.459Z,95246.06
2022-08-05T04:45:10.476Z,95240.63
2022-08-05T04:48:26.994Z,95246.31
2022-08-05T04:51:03.496Z,95249.44
2022-08-05T04:53:58.477Z,95246.44
2022-08-05T04:56:37.191Z,95250.28
2022-08-05T04:59:36.636Z,95248.94
2022-08-05T05:02:41.547Z,95240.63
2022-08-05T05:05:32.449Z,95236.56
2022-08-05T05:08:42.769Z,95243.63
2022-08-05T05:11:24.458Z,95244.72
2022-08-05T05:14:38.474Z,95246.56
2022-08-05T05:17:56.264Z,95242.41
2022-08-05T05:20:30.566Z,95239.16
2022-08-05T05:23:19.504Z,95235.88
2022-08-05T05:26:07.484Z,95237.88
2022-08-05T05:29:02.404Z,95238.00
2022-08-05T05:31:49.465Z,95227.88
2022-08-05T05:34:26.776Z,95228.91
2022-08-05T05:37:21.632Z,95226.59
2022-08-05T05:40:36.487Z,95232.75
2022-08-05T05:43:57.014Z,95237.22
2022-08-05T05:46:18.833Z,95227.88
2022-08-05T05:49:06.485Z,95235.88
2022-08-05T05:51:55.608Z,95234.25
2022-08-05T05:54:50.537Z,95241.34
2022-08-05T05:57:24.671Z,95235.38
2022-08-05T06:00:34.235Z,95234.72
2022-08-05T06:03:39.695Z,95223.63
2022-08-05T06:06:09.507Z,95221.38
2022-08-05T06:08:50.499Z,95221.47
2022-08-05T06:11:23.567Z,95219.84
2022-08-05T06:14:10.505Z,95213.97
2022-08-05T06:16:43.557Z,95219.31
2022-08-05T06:19:35.070Z,95213.50
2022-08-05T06:22:20.507Z,95216.97
2022-08-05T06:25:24.346Z,95216.25
2022-08-05T06:28:21.249Z,95220.69
2022-08-05T06:31:18.131Z,95219.91
2022-08-05T06:34:15.803Z,95224.28
2022-08-05T06:37:13.536Z,95226.97
2022-08-05T06:40:02.593Z,95227.16
2022-08-05T06:42:35.584Z,95229.81
2022-08-05T06:46:03.395Z,95226.63
2022-08-05T06:48:53.041Z,95217.13
2022-08-05T06:51:29.723Z,95217.28
2022-08-05T06:54:05.851Z,95216.50
2022-08-05T06:57:56.648Z,95219.38
2022-08-05T06:59:48.507Z,95208.16
2022-08-05T07:02:54.506Z,95216.38
2022-08-05T07:05:37.181Z,95207.06
2022-08-05T07:08:25.145Z,95202.38
2022-08-05T07:10:58.636Z,95205.84
2022-08-05T07:14:04.548Z,95196.72
2022-08-05T07:18:00.457Z,95196.91
2022-08-05T07:20:32.429Z,95200.72
2022-08-05T07:22:58.658Z,95200.69
2022-08-05T07:25:56.388Z,95196.00
2022-08-05T07:28:36.611Z,95200.38
2022-08-05T07:31:16.551Z,95195.94
2022-08-05T07:33:56.620Z,95194.53
2022-08-05T07:36:53.548Z,95193.00
2022-08-05T07:40:04.529Z,95199.28
2022-08-05T07:42:57.578Z,95201.19
2022-08-05T07:45:57.428Z,95203.56
2022-08-05T07:49:02.944Z,95205.78
2022-08-05T07:51:41.065Z,95207.06
2022-08-05T07:54:31.130Z,95204.75
2022-08-05T07:57:56.229Z,95200.06
2022-08-05T08:00:16.777Z,95208.41
2022-08-05T08:03:14.229Z,95206.88
2022-08-05T08:05:52.288Z,95200.47
2022-08-05T08:08:39.594Z,95193.31
2022-08-05T08:11:15.903Z,95188.66
2022-08-05T08:14:02.577Z,95191.75
2022-08-05T08:16:51.190Z,95198.47
2022-08-05T08:20:22.989Z,95199.34
2022-08-05T08:22:33.739Z,95198.72
2022-08-05T08:25:27.164Z,95202.09
2022-08-05T08:28:36.849Z,95196.28
2022-08-05T08:31:34.577Z,95189.25
2022-08-05T08:34:30.671Z,95190.81
2022-08-05T08:37:06.661Z,95191.44
2022-08-05T08:39:53.678Z,95185.47
2022-08-05T08:42:46.857Z,95180.22
2022-08-05T08:45:45.595Z,95179.09
2022-08-05T08:49:02.462Z,95179.19
2022-08-05T08:52:03.048Z,95175.25
2022-08-05T08:54:54.609Z,95177.00
2022-08-05T08:57:58.016Z,95171.47
2022-08-05T09:00:31.741Z,95177.50
2022-08-05T09:03:19.265Z,95174.50
2022-08-05T09:06:07.539Z,95168.72
2022-08-05T09:09:02.632Z,95168.09
2022-08-05T09:12:01.243Z,95168.31
2022-08-05T09:15:06.431Z,95165.84
2022-08-05T09:17:49.631Z,95161.50
2022-08-05T09:20:37.338Z,95163.88
2022-08-05T09:23:21.676Z,95159.50
2022-08-05T09:26:20.699Z,95160.34
2022-08-05T09:29:08.831Z,95157.94
2022-08-05T09:32:41.708Z,95157.28
2022-08-05T09:34:55.121Z,95153.31
2022-08-05T09:38:17.977Z,95154.44
2022-08-05T09:41:03.656Z,95146.47
2022-08-05T09:43:50.616Z,95156.53
2022-08-05T09:46:51.751Z,95150.72
2022-08-05T09:50:01.350Z,95156.47
2022-08-05T09:52:44.880Z,95153.97
2022-08-05T09:55:56.586Z,95148.59
2022-08-05T09:58:34.637Z,95147.25
2022-08-05T10:01:31.610Z,95141.28
2022-08-05T10:04:29.235Z,95135.06
2022-08-05T10:08:10.802Z,95144.22
2022-08-05T10:10:32.408Z,95142.72
2022-08-05T10:13:12.741Z,95144.50
2022-08-05T10:15:57.666Z,95140.09
2022-08-05T10:18:38.784Z,95143.34
2022-08-05T10:21:20.663Z,95138.44
2022-08-05T10:24:07.580Z,95139.50
2022-08-05T10:26:52.901Z,95132.69
2022-08-05T10:30:06.867Z,95126.00
2022-08-05T10:33:01.341Z,95129.09
2022-08-05T10:35:59.000Z,95128.88
2022-08-05T10:38:57.708Z,95123.59
2022-08-05T10:42:02.654Z,95125.56
2022-08-05T10:44:39.200Z,95133.88
2022-08-05T10:47:39.694Z,95123.63
2022-08-05T10:50:36.648Z,95113.41
2022-08-05T10:54:23.229Z,95123.59
2022-08-05T10:57:05.704Z,95120.53
2022-08-05T11:00:04.465Z,95112.34
2022-08-05T11:02:50.741Z,95109.13
2022-08-05T11:05:37.737Z,95111.31
2022-08-05T11:08:37.415Z,95116.78
2022-08-05T11:11:52.267Z,95108.22
2022-08-05T11:15:11.722Z,95104.88
2022-08-05T11:17:59.992Z,95102.78
2022-08-05T11:20:41.811Z,95102.88
2022-08-05T11:24:05.500Z,95102.06
2022-08-05T11:27:51.059Z,95100.25
2022-08-05T11:30:31.730Z,95102.78
2022-08-05T11:33:46.026Z,95100.56
2022-08-05T11:37:00.722Z,95107.13
2022-08-05T11:40:08.731Z,95110.81
2022-08-05T11:43:02.724Z,95099.50
2022-08-05T11:46:16.108Z,95103.69
2022-08-05T11:48:48.819Z,95111.53
2022-08-05T11:51:43.623Z,95099.97
2022-08-05T11:54:33.619Z,95101.94
2022-08-05T11:57:25.635Z,95099.06
2022-08-05T12:00:07.734Z,95093.25
2022-08-05T12:03:01.798Z,95088.84
2022-08-05T12:05:48.746Z,95083.75
2022-08-05T12:08:21.803Z,95086.91
2022-08-05T12:11:20.313Z,95082.88
2022-08-05T12:14:11.808Z,95078.84
2022-08-05T12:16:58.761Z,95081.34
2022-08-05T12:20:25.628Z,95079.56
2022-08-05T12:22:41.739Z,95083.28
2022-08-05T12:25:28.513Z,95078.72
2022-08-05T12:28:22.769Z,95078.84
2022-08-05T12:31:33.649Z,95075.09
2022-08-05T12:34:41.759Z,95066.38
2022-08-05T12:37:38.748Z,95058.44
2022-08-05T12:40:31.736Z,95062.69
2022-08-05T12:43:11.763Z,95078.75
2022-08-05T12:46:14.760Z,95076.69
2022-08-05T12:49:25.505Z,95077.38
2022-08-05T12:52:23.782Z,95076.28
2022-08-05T12:55:07.840Z,95078.25
2022-08-05T12:58:51.533Z,95072.72
2022-08-05T13:02:01.735Z,95075.09
2022-08-05T13:04:11.783Z,95074.13
2022-08-05T13:06:58.770Z,95070.78
2022-08-05T13:09:34.854Z,95071.88
2022-08-05T13:12:22.772Z,95071.19
2022-08-05T13:15:06.858Z,95063.25
2022-08-05T13:18:04.790Z,95061.00
2022-08-05T13:20:41.879Z,95064.03
2022-08-05T13:23:29.795Z,95064.88
2022-08-05T13:26:09.774Z,95060.31
2022-08-05T13:28:59.316Z,95060.31
2022-08-05T13:32:04.226Z,95058.38
2022-08-05T13:34:53.817Z,95060.03
2022-08-05T13:37:47.804Z,95053.94
2022-08-05T13:40:52.016Z,95060.31
2022-08-05T13:43:44.683Z,95061.13
2022-08-05T13:47:01.909Z,95060.84
2022-08-05T13:49:45.087Z,95051.59
2022-08-05T13:52:37.980Z,95042.41
2022-08-05T13:55:40.815Z,95040.63
2022-08-05T13:58:23.271Z,95043.13
2022-08-05T14:01:17.817Z,95038.84
2022-08-05T14:04:10.854Z,95027.06
2022-08-05T14:07:11.977Z,95023.88
2022-08-05T14:09:57.852Z,95016.94
2022-08-05T14:12:54.588Z,95027.03
2022-08-05T14:16:07.798Z,95027.75
2022-08-05T14:19:04.261Z,95019.16
2022-08-05T14:22:09.178Z,95017.91
2022-08-05T14:24:44.923Z,95020.53
2022-08-05T14:27:33.843Z,95027.72
2022-08-05T14:30:19.988Z,95022.72
2022-08-05T14:33:22.577Z,95024.22
2022-08-05T14:36:10.842Z,95021.16
2022-08-05T14:38:43.921Z,95024.72
2022-08-05T14:41:30.832Z,95029.16
2022-08-05T14:44:09.707Z,95016.84
2022-08-05T14:46:58.847Z,95013.91
2022-08-05T14:49:56.362Z,95015.13
2022-08-05T14:52:51.926Z,95010.81
2022-08-05T14:55:39.495Z,95020.28
2022-08-05T14:58:16.028Z,95023.34
2022-08-05T15:01:02.871Z,95022.09
2022-08-05T15:03:39.146Z,95006.34
2022-08-05T15:06:27.927Z,95005.09
2022-08-05T15:09:03.854Z,95009.75
2022-08-05T15:11:53.483Z,95008.19
2022-08-05T15:14:34.595Z,95006.66
2022-08-05T15:17:46.684Z,95002.22
2022-08-05T15:20:24.765Z,94999.84
2022-08-05T15:23:13.862Z,94994.13
2022-08-05T15:25:53.408Z,95002.47
2022-08-05T15:28:43.870Z,94992.41
2022-08-05T15:31:34.741Z,94999.63
2022-08-05T15:34:33.243Z,94995.22
2022-08-05T15:37:19.347Z,94992.59
2022-08-05T15:41:01.188Z,94989.38
2022-08-05T15:43:45.737Z,94986.31
2022-08-05T15:46:33.882Z,94988.38
2022-08-05T15:49:10.612Z,94986.72
2022-08-05T15:52:13.397Z,94986.97
2022-08-05T15:54:48.950Z,94990.69
2022-08-05T15:57:37.905Z,94989.16
2022-08-05T16:00:26.525Z,94984.59
2022-08-05T16:03:21.925Z,94982.69
2022-08-05T16:05:55.836Z,94984.59
2022-08-05T16:08:45.876Z,94985.00
2022-08-05T16:11:40.190Z,94981.66
2022-08-05T16:14:22.932Z,94978.47
2022-08-05T16:17:03.100Z,94975.56
2022-08-05T16:20:03.172Z,94975.56
2022-08-05T16:22:44.047Z,94985.09
2022-08-05T16:25:23.933Z,94982.06
2022-08-05T16:28:13.897Z,94979.56
2022-08-05T16:30:56.931Z,94983.88
2022-08-05T16:33:43.944Z,94988.84
2022-08-05T16:36:20.531Z,94974.50
2022-08-05T16:39:21.017Z,94977.94
2022-08-05T16:42:18.493Z,94979.75
2022-08-05T16:46:04.130Z,94978.78
2022-08-05T16:48:05.917Z,94977.94
2022-08-05T16:50:59.944Z,94978.09
2022-08-05T16:54:03.885Z,94980.03
2022-08-05T16:56:46.942Z,94977.63
2022-08-05T17:00:00.378Z,94978.84
2022-08-05T17:02:38.943Z,94994.19
2022-08-05T17:05:32.952Z,94987.66
2022-08-05T17:08:35.864Z,94995.06
2022-08-05T17:11:25.275Z,94992.16
2022-08-05T17:14:34.275Z,94992.31
2022-08-05T17:17:15.136Z,94990.56
2022-08-05T17:20:01.983Z,94997.56
2022-08-05T17:22:35.061Z,94999.84
2022-08-05T17:25:39.851Z,95006.56
2022-08-05T17:28:20.954Z,95008.00
2022-08-05T17:31:24.505Z,95014.97
2022-08-05T17:34:29.990Z,95012.72
2022-08-05T17:37:37.686Z,95017.72
2022-08-05T17:40:16.078Z,95016.22
2022-08-05T17:42:53.583Z,95018.47
2022-08-05T17:45:40.966Z,95013.16
2022-08-05T17:48:14.230Z,95015.53
2022-08-05T17:51:09.207Z,95019.59
2022-08-05T17:53:43.070Z,95011.69
2022-08-05T17:56:38.007Z,95013.47
2022-08-05T17:59:12.084Z,95010.59
2022-08-05T18:01:59.029Z,95013.81
2022-08-05T18:04:32.141Z,95013.72
2022-08-05T18:07:22.953Z,95011.78
2022-08-05T18:09:59.066Z,95019.38
2022-08-05T18:12:47.043Z,95025.94
2022-08-05T18:15:27.166Z,95016.94
2022-08-05T18:18:14.213Z,95015.75
2022-08-05T18:20:57.024Z,95019.63
2022-08-05T18:23:53.761Z,95024.47
2022-08-05T18:26:44.067Z,95024.22
2022-08-05T18:29:17.127Z,95027.28
2022-08-05T18:32:04.027Z,95033.06
2022-08-05T18:34:40.643Z,95037.78
2022-08-05T18:37:34.365Z,95026.94
2022-08-05T18:41:56.780Z,95035.13
2022-08-05T18:43:38.293Z,95034.72
2022-08-05T18:46:26.067Z,95036.91
2022-08-05T18:49:30.350Z,95037.47
2022-08-05T18:52:36.293Z,95038.13
2022-08-05T18:55:13.096Z,95047.56
2022-08-05T18:58:03.501Z,95041.94
2022-08-05T19:00:37.175Z,95052.81
2022-08-05T19:03:52.743Z,95052.50
2022-08-05T19:06:20.105Z,95052.94
2022-08-05T19:09:09.078Z,95058.69
2022-08-05T19:12:00.129Z,95061.72
2022-08-05T19:15:00.953Z,95069.03
2022-08-05T19:18:08.516Z,95070.38
2022-08-05T19:20:52.084Z,95065.53
2022-08-05T19:24:05.273Z,95071.28
2022-08-05T19:26:55.461Z,95066.69
2022-08-05T19:29:36.428Z,95075.66
2022-08-05T19:32:27.752Z,95077.84
2022-08-05T19:35:06.429Z,95069.41
2022-08-05T19:38:06.363Z,95062.88
2022-08-05T19:41:07.076Z,95073.00
2022-08-05T19:44:06.019Z,95070.88
2022-08-05T19:46:53.075Z,95069.75
2022-08-05T19:49:40.054Z,95062.38
2022-08-05T19:52:30.718Z,95066.53
2022-08-05T19:56:14.353Z,95063.84
2022-08-05T19:58:29.447Z,95055.59
2022-08-05T20:01:10.132Z,95062.97
2022-08-05T20:03:50.221Z,95053.88
2022-08-05T20:06:34.906Z,95057.59
2022-08-05T20:09:26.211Z,95061.53
2022-08-05T20:12:09.073Z,95061.16
2022-08-05T20:14:52.069Z,95063.22
2022-08-05T20:17:33.718Z,95064.44
2022-08-05T20:20:17.170Z,95065.44
2022-08-05T20:22:57.075Z,95071.47
2022-08-05T20:25:40.231Z,95067.38
2022-08-05T20:28:21.080Z,95073.91
2022-08-05T20:31:03.078Z,95062.94
2022-08-05T20:33:42.508Z,95064.97
2022-08-05T20:36:31.077Z,95070.47
2022-08-05T20:39:06.322Z,95072.44
2022-08-05T20:42:01.081Z,95069.25
2022-08-05T20:44:37.794Z,95067.66
2022-08-05T20:47:31.787Z,95074.09
2022-08-05T20:50:07.438Z,95069.16
2022-08-05T20:52:55.090Z,95072.03
2022-08-05T20:55:56.247Z,95075.00
2022-08-05T20:58:36.099Z,95076.09
2022-08-05T21:01:18.194Z,95074.59
2022-08-05T21:04:20.095Z,95079.38
2022-08-05T21:07:15.092Z,95079.59
2022-08-05T21:10:09.104Z,95076.34
2022-08-05T21:13:11.077Z,95076.53
2022-08-05T21:15:56.122Z,95069.06
2022-08-05T21:18:50.129Z,95069.22
2022-08-05T21:21:44.317Z,95070.25
2022-08-05T21:24:24.205Z,95072.19
2022-08-05T21:27:11.106Z,95076.91
2022-08-05T21:29:48.433Z,95074.56
2022-08-05T21:32:32.363Z,95084.31
2022-08-05T21:35:18.371Z,95083.72
2022-08-05T21:38:13.548Z,95082.22
2022-08-05T21:41:07.088Z,95081.66
2022-08-05T21:44:03.623Z,95079.41
2022-08-05T21:46:46.138Z,95083.94
2022-08-05T21:50:00.348Z,95085.09
2022-08-05T21:52:58.791Z,95086.13
2022-08-05T21:56:04.608Z,95086.44
2022-08-05T21:58:58.005Z,95098.03
2022-08-05T22:01:35.422Z,95100.72
2022-08-05T22:04:25.476Z,95102.66
2022-08-05T22:07:02.185Z,95103.81
2022-08-05T22:09:49.160Z,95098.75
2022-08-05T22:12:26.443Z,95102.25
2022-08-05T22:16:02.755Z,95101.44
2022-08-05T22:18:13.200Z,95095.47
2022-08-05T22:21:03.942Z,95093.22
2022-08-05T22:24:01.921Z,95096.06
2022-08-05T22:27:10.958Z,95095.31
2022-08-05T22:29:57.166Z,95102.34
2022-08-05T22:32:52.142Z,95101.59
2022-08-05T22:35:48.845Z,95106.19
2022-08-05T22:38:23.206Z,95102.00
2022-08-05T22:41:12.158Z,95096.03
2022-08-05T22:43:48.248Z,95104.00
2022-08-05T22:46:40.114Z,95098.22
2022-08-05T22:50:18.233Z,95097.69
2022-08-05T22:52:30.637Z,95092.75
2022-08-05T22:55:19.399Z,95090.47
2022-08-05T22:58:17.204Z,95082.84
2022-08-05T23:01:22.226Z,95083.00
2022-08-05T23:04:22.162Z,95078.06
2022-08-05T23:07:02.173Z,95076.56
2022-08-05T23:09:57.404Z,95076.88
2022-08-05T23:12:46.168Z,95074.44
2022-08-05T23:15:19.384Z,95071.16
2022-08-05T23:18:11.725Z,95064.50
2022-08-05T23:20:56.193Z,95062.88
2022-08-05T23:23:52.163Z,95059.63
2022-08-05T23:26:46.184Z,95056.34
2022-08-05T23:29:41.167Z,95053.09
2022-08-05T23:32:28.576Z,95060.94
2022-08-05T23:35:09.175Z,95060.16
2022-08-05T23:37:56.153Z,95059.47
2022-08-05T23:40:29.295Z,95060.56
2022-08-05T23:43:25.604Z,95064.22
2022-08-05T23:46:21.251Z,95062.69
2022-08-05T23:49:16.182Z,95061.94
2022-08-05T23:52:10.106Z,95061.25
2022-08-05T23:54:57.177Z,95060.50
2022-08-05T23:57:31.264Z,95055.53
